createdAt,value
2022-09-07T00:00:44.482Z,14.86
2022-09-07T00:03:11.891Z,14.86
2022-09-07T00:05:43.590Z,14.86
2022-09-07T00:08:11.161Z,14.87
2022-09-07T00:10:39.577Z,14.88
2022-09-07T00:13:08.632Z,14.89
2022-09-07T00:15:40.812Z,14.90
2022-09-07T00:18:08.357Z,14.90
2022-09-07T00:20:35.808Z,14.90
2022-09-07T00:23:03.261Z,14.89
2022-09-07T00:25:32.030Z,14.87
2022-09-07T00:27:59.711Z,14.85
2022-09-07T00:30:26.862Z,14.81
2022-09-07T00:32:54.108Z,14.78
2022-09-07T00:35:21.388Z,14.75
2022-09-07T00:37:49.029Z,14.72
2022-09-07T00:40:16.483Z,14.67
2022-09-07T00:42:43.804Z,14.63
2022-09-07T00:45:18.987Z,14.58
2022-09-07T00:48:04.552Z,14.53
2022-09-07T00:50:44.912Z,14.49
2022-09-07T00:53:35.020Z,14.45
2022-09-07T00:56:04.033Z,14.42
2022-09-07T00:58:32.249Z,14.38
2022-09-07T01:00:59.522Z,14.34
2022-09-07T01:03:36.913Z,14.31
2022-09-07T01:06:10.297Z,14.25
2022-09-07T01:08:37.556Z,14.21
2022-09-07T01:11:05.322Z,14.16
2022-09-07T01:13:32.753Z,14.10
2022-09-07T01:16:01.944Z,14.06
2022-09-07T01:18:59.552Z,14.00
2022-09-07T01:21:30.155Z,13.94
2022-09-07T01:24:42.993Z,13.89
2022-09-07T01:27:31.543Z,13.85
2022-09-07T01:30:04.634Z,13.84
2022-09-07T01:33:02.632Z,13.83
2022-09-07T01:35:37.232Z,13.82
2022-09-07T01:38:39.512Z,13.82
2022-09-07T01:41:23.700Z,13.81
2022-09-07T01:44:15.993Z,13.80
2022-09-07T01:46:44.418Z,13.79
2022-09-07T01:49:20.101Z,13.77
2022-09-07T01:51:51.496Z,13.74
2022-09-07T01:54:32.733Z,13.70
2022-09-07T01:57:06.862Z,13.66
2022-09-07T01:59:38.815Z,13.63
2022-09-07T02:02:19.398Z,13.59
2022-09-07T02:04:50.924Z,13.57
2022-09-07T02:07:27.512Z,13.54
2022-09-07T02:10:33.695Z,13.51
2022-09-07T02:13:07.427Z,13.46
2022-09-07T02:15:58.117Z,13.43
2022-09-07T02:18:28.181Z,13.40
2022-09-07T02:20:58.315Z,13.38
2022-09-07T02:23:29.869Z,13.36
2022-09-07T02:26:02.252Z,13.34
2022-09-07T02:28:32.837Z,13.33
2022-09-07T02:31:00.782Z,13.31
2022-09-07T02:33:29.154Z,13.30
2022-09-07T02:35:56.592Z,13.28
2022-09-07T02:38:24.499Z,13.26
2022-09-07T02:40:55.995Z,13.24
2022-09-07T02:43:24.166Z,13.23
2022-09-07T02:45:54.352Z,13.20
2022-09-07T02:48:31.147Z,13.18
2022-09-07T02:51:19.592Z,13.17
2022-09-07T02:54:15.552Z,13.15
2022-09-07T02:56:57.531Z,13.14
2022-09-07T02:59:30.521Z,13.11
2022-09-07T03:02:06.003Z,13.10
2022-09-07T03:04:48.473Z,13.10
2022-09-07T03:07:19.289Z,13.09
2022-09-07T03:09:49.901Z,13.09
2022-09-07T03:12:17.605Z,13.10
2022-09-07T03:14:45.172Z,13.12
2022-09-07T03:17:12.721Z,13.14
2022-09-07T03:19:39.978Z,13.16
2022-09-07T03:22:07.635Z,13.18
2022-09-07T03:24:34.788Z,13.20
2022-09-07T03:27:02.141Z,13.22
2022-09-07T03:29:29.288Z,13.25
2022-09-07T03:31:56.439Z,13.26
2022-09-07T03:34:23.585Z,13.27
2022-09-07T03:36:50.737Z,13.28
2022-09-07T03:39:21.264Z,13.29
2022-09-07T03:41:49.045Z,13.30
2022-09-07T03:44:16.194Z,13.30
2022-09-07T03:46:44.761Z,13.28
2022-09-07T03:49:11.913Z,13.28
2022-09-07T03:51:39.882Z,13.28
2022-09-07T03:54:07.652Z,13.27
2022-09-07T03:56:34.913Z,13.28
2022-09-07T03:59:02.051Z,13.27
2022-09-07T04:01:29.572Z,13.24
2022-09-07T04:04:02.915Z,13.21
2022-09-07T04:06:30.768Z,13.15
2022-09-07T04:09:01.609Z,13.11
2022-09-07T04:11:28.856Z,13.06
2022-09-07T04:13:56.117Z,13.02
2022-09-07T04:16:25.668Z,12.99
2022-09-07T04:18:55.162Z,12.96
2022-09-07T04:21:23.907Z,12.93
2022-09-07T04:23:51.466Z,12.91
2022-09-07T04:26:24.534Z,12.89
2022-09-07T04:28:55.206Z,12.86
2022-09-07T04:31:23.583Z,12.84
2022-09-07T04:33:51.952Z,12.83
2022-09-07T04:36:20.788Z,12.84
2022-09-07T04:38:54.384Z,12.86
2022-09-07T04:41:21.912Z,12.89
2022-09-07T04:43:53.617Z,12.92
2022-09-07T04:46:24.132Z,12.93
2022-09-07T04:48:53.660Z,12.95
2022-09-07T04:51:22.693Z,12.95
2022-09-07T04:53:51.152Z,12.96
2022-09-07T04:56:19.263Z,12.99
2022-09-07T04:58:47.628Z,13.03
2022-09-07T05:01:18.198Z,13.07
2022-09-07T05:03:45.620Z,13.11
2022-09-07T05:06:13.602Z,13.15
2022-09-07T05:08:43.714Z,13.18
2022-09-07T05:11:12.516Z,13.22
2022-09-07T05:13:39.921Z,13.25
2022-09-07T05:16:14.657Z,13.29
2022-09-07T05:18:42.710Z,13.35
2022-09-07T05:21:15.186Z,13.41
2022-09-07T05:23:43.246Z,13.48
2022-09-07T05:26:10.997Z,13.55
2022-09-07T05:28:38.823Z,13.62
2022-09-07T05:31:23.243Z,13.70
2022-09-07T05:36:43.048Z,13.85
2022-09-07T05:39:10.616Z,13.89
2022-09-07T05:41:38.470Z,13.97
2022-09-07T05:46:53.895Z,14.15
2022-09-07T05:49:21.117Z,14.22
2022-09-07T05:51:48.860Z,14.28
2022-09-07T05:54:16.132Z,14.34
2022-09-07T05:56:43.388Z,14.40
2022-09-07T05:59:11.367Z,14.45
2022-09-07T06:01:38.858Z,14.52
2022-09-07T06:04:06.066Z,14.60
2022-09-07T06:06:33.479Z,14.68
2022-09-07T06:09:00.877Z,14.76
2022-09-07T06:11:28.152Z,14.83
2022-09-07T06:13:55.380Z,14.90
2022-09-07T06:16:23.295Z,14.95
2022-09-07T06:18:50.983Z,15.00
2022-09-07T06:21:23.063Z,15.06
2022-09-07T06:23:50.733Z,15.14
2022-09-07T06:26:19.806Z,15.21
2022-09-07T06:28:50.762Z,15.29
2022-09-07T06:31:20.809Z,15.39
2022-09-07T06:33:48.959Z,15.49
2022-09-07T06:36:21.554Z,15.59
2022-09-07T06:38:49.616Z,15.65
2022-09-07T06:44:05.477Z,15.76
2022-09-07T06:49:20.510Z,15.96
2022-09-07T06:51:47.821Z,16.05
2022-09-07T06:57:09.489Z,16.19
2022-09-07T06:59:37.515Z,16.24
2022-09-07T07:02:06.147Z,16.29
2022-09-07T07:04:37.781Z,16.37
2022-09-07T07:07:07.101Z,16.44
2022-09-07T07:09:34.549Z,16.50
2022-09-07T07:12:03.141Z,16.54
2022-09-07T07:14:33.779Z,16.59
2022-09-07T07:17:02.980Z,16.65
2022-09-07T07:19:30.223Z,16.71
2022-09-07T07:24:45.064Z,16.82
2022-09-07T07:27:12.473Z,16.86
2022-09-07T07:29:39.714Z,16.91
2022-09-07T07:32:07.069Z,16.95
2022-09-07T07:34:34.385Z,16.98
2022-09-07T07:37:01.695Z,17.02
2022-09-07T07:42:16.372Z,17.13
2022-09-07T07:44:43.603Z,17.18
2022-09-07T07:47:10.872Z,17.22
2022-09-07T07:49:38.022Z,17.25
2022-09-07T07:54:53.808Z,17.32
2022-09-07T07:57:21.592Z,17.36
2022-09-07T07:59:48.846Z,17.41
2022-09-07T08:02:17.220Z,17.47
2022-09-07T08:04:45.693Z,17.54
2022-09-07T08:07:13.343Z,17.59
2022-09-07T08:09:41.833Z,17.65
2022-09-07T08:12:13.342Z,17.71
2022-09-07T08:14:41.709Z,17.77
2022-09-07T08:17:14.025Z,17.83
2022-09-07T08:19:41.694Z,17.89
2022-09-07T08:22:11.187Z,17.96
2022-09-07T08:24:38.441Z,18.06
2022-09-07T08:27:05.700Z,18.15
2022-09-07T08:29:35.080Z,18.22
2022-09-07T08:32:06.988Z,18.30
2022-09-07T08:34:36.762Z,18.37
2022-09-07T08:37:04.022Z,18.47
2022-09-07T08:39:31.418Z,18.55
2022-09-07T08:42:07.750Z,18.62
2022-09-07T08:44:42.120Z,18.71
2022-09-07T08:47:40.237Z,18.78
2022-09-07T08:50:12.262Z,18.86
2022-09-07T08:52:52.812Z,18.95
2022-09-07T08:55:29.908Z,19.04
2022-09-07T08:58:22.192Z,19.13
2022-09-07T09:06:57.130Z,19.46
2022-09-07T09:09:50.619Z,19.56
2022-09-07T09:12:52.710Z,19.62
2022-09-07T09:15:23.032Z,19.71
2022-09-07T09:18:18.133Z,19.76
2022-09-07T09:20:51.073Z,19.81
2022-09-07T09:23:20.832Z,19.88
2022-09-07T09:25:54.932Z,19.95
2022-09-07T09:28:24.649Z,20.00
2022-09-07T09:30:53.810Z,20.08
2022-09-07T09:33:27.042Z,20.17
2022-09-07T09:35:56.764Z,20.25
2022-09-07T09:38:34.529Z,20.33
2022-09-07T09:41:15.710Z,20.43
2022-09-07T09:43:48.512Z,20.52
2022-09-07T09:46:20.725Z,20.56
2022-09-07T09:48:54.122Z,20.61
2022-09-07T09:54:23.905Z,20.67
2022-09-07T09:56:51.759Z,20.71
2022-09-07T10:05:35.755Z,20.91
2022-09-07T10:08:06.862Z,21.01
2022-09-07T10:10:34.071Z,21.09
2022-09-07T10:13:01.293Z,21.16
2022-09-07T10:15:40.522Z,21.21
2022-09-07T10:18:18.903Z,21.26
2022-09-07T10:20:46.121Z,21.36
2022-09-07T10:23:24.424Z,21.43
2022-09-07T10:25:52.438Z,21.51
2022-09-07T10:28:25.157Z,21.58
2022-09-07T10:31:14.560Z,21.66
2022-09-07T10:34:27.029Z,21.77
2022-09-07T10:37:09.169Z,21.89
2022-09-07T10:39:40.133Z,21.96
2022-09-07T10:42:10.429Z,22.02
2022-09-07T10:44:43.562Z,22.07
2022-09-07T10:47:44.753Z,22.11
2022-09-07T10:50:29.142Z,22.17
2022-09-07T10:53:43.849Z,22.23
2022-09-07T10:56:15.731Z,22.33
2022-09-07T10:59:05.637Z,22.39
2022-09-07T11:01:58.294Z,22.48
2022-09-07T11:04:40.686Z,22.52
2022-09-07T11:07:15.678Z,22.57
2022-09-07T11:09:49.194Z,22.58
2022-09-07T11:12:27.349Z,22.63
2022-09-07T11:15:07.323Z,22.71
2022-09-07T11:18:05.288Z,22.81
2022-09-07T11:20:37.739Z,22.88
2022-09-07T11:23:29.173Z,22.92
2022-09-07T11:26:07.830Z,22.95
2022-09-07T11:31:45.933Z,23.05
2022-09-07T11:34:24.635Z,23.09
2022-09-07T11:37:11.421Z,23.17
2022-09-07T11:39:41.479Z,23.24
2022-09-07T11:42:43.134Z,23.30
2022-09-07T11:45:22.715Z,23.40
2022-09-07T11:47:57.021Z,23.50
2022-09-07T11:50:24.844Z,23.57
2022-09-07T11:53:01.435Z,23.62
2022-09-07T11:55:31.744Z,23.63
2022-09-07T11:58:44.041Z,23.65
2022-09-07T12:01:19.977Z,23.72
2022-09-07T12:04:05.643Z,23.79
2022-09-07T12:07:03.702Z,23.85
2022-09-07T12:09:52.356Z,23.94
2022-09-07T12:12:42.464Z,23.99
2022-09-07T12:15:30.982Z,24.05
2022-09-07T12:18:05.587Z,24.12
2022-09-07T12:20:44.212Z,24.20
2022-09-07T12:23:17.382Z,24.25
2022-09-07T12:25:49.358Z,24.32
2022-09-07T12:28:25.589Z,24.36
2022-09-07T12:31:07.133Z,24.37
2022-09-07T12:33:38.996Z,24.39
2022-09-07T12:36:38.670Z,24.37
2022-09-07T12:39:17.429Z,24.37
2022-09-07T12:45:30.294Z,24.46
2022-09-07T12:48:00.410Z,24.49
2022-09-07T12:50:30.061Z,24.51
2022-09-07T12:53:48.552Z,24.54
2022-09-07T12:56:39.332Z,24.56
2022-09-07T12:59:37.244Z,24.54
2022-09-07T13:02:24.290Z,24.52
2022-09-07T13:04:57.206Z,24.50
2022-09-07T13:07:46.477Z,24.51
2022-09-07T13:10:33.536Z,24.53
2022-09-07T13:13:04.769Z,24.55
2022-09-07T13:15:41.030Z,24.55
2022-09-07T13:18:27.278Z,24.55
2022-09-07T13:21:09.493Z,24.58
2022-09-07T13:23:40.773Z,24.60
2022-09-07T13:26:10.176Z,24.61
2022-09-07T13:28:52.668Z,24.62
2022-09-07T13:31:23.608Z,24.65
2022-09-07T13:33:52.457Z,24.68
2022-09-07T13:36:24.480Z,24.71
2022-09-07T13:38:53.567Z,24.73
2022-09-07T13:41:29.898Z,24.70
2022-09-07T13:44:00.684Z,24.66
2022-09-07T13:46:56.884Z,24.64
2022-09-07T13:49:23.858Z,24.63
2022-09-07T13:52:12.813Z,24.62
2022-09-07T13:55:01.972Z,24.61
2022-09-07T13:57:31.466Z,24.60
2022-09-07T13:59:59.160Z,24.63
2022-09-07T14:02:33.117Z,24.65
2022-09-07T14:05:01.232Z,24.66
2022-09-07T14:07:31.842Z,24.67
2022-09-07T14:10:20.781Z,24.67
2022-09-07T14:12:50.916Z,24.69
2022-09-07T14:15:33.783Z,24.71
2022-09-07T14:18:06.617Z,24.70
2022-09-07T14:20:42.275Z,24.72
2022-09-07T14:23:25.721Z,24.71
2022-09-07T14:26:16.653Z,24.70
2022-09-07T14:28:46.222Z,24.72
2022-09-07T14:31:16.204Z,24.74
2022-09-07T14:33:51.801Z,24.75
2022-09-07T14:36:45.415Z,24.76
2022-09-07T14:39:09.023Z,24.76
2022-09-07T14:41:41.084Z,24.77
2022-09-07T14:44:34.037Z,24.77
2022-09-07T14:47:04.805Z,24.77
2022-09-07T14:49:32.326Z,24.76
2022-09-07T14:52:00.748Z,24.77
2022-09-07T14:54:31.644Z,24.77
2022-09-07T14:57:02.904Z,24.77
2022-09-07T14:59:43.183Z,24.78
2022-09-07T15:02:20.084Z,24.78
2022-09-07T15:04:49.058Z,24.77
2022-09-07T15:07:39.015Z,24.77
2022-09-07T15:10:21.410Z,24.76
2022-09-07T15:12:50.712Z,24.77
2022-09-07T15:15:40.585Z,24.77
2022-09-07T15:18:45.625Z,24.76
2022-09-07T15:21:12.892Z,24.74
2022-09-07T15:23:40.132Z,24.72
2022-09-07T15:27:01.933Z,24.72
2022-09-07T15:29:13.705Z,24.73
2022-09-07T15:31:42.791Z,24.72
2022-09-07T15:34:17.987Z,24.71
2022-09-07T15:36:53.310Z,24.69
2022-09-07T15:39:23.244Z,24.66
2022-09-07T15:41:51.636Z,24.65
2022-09-07T15:44:24.381Z,24.65
2022-09-07T15:49:43.500Z,24.68
2022-09-07T15:52:13.603Z,24.67
2022-09-07T15:54:40.873Z,24.65
2022-09-07T15:59:55.331Z,24.61
2022-09-07T16:05:10.655Z,24.51
2022-09-07T16:10:27.361Z,24.42
2022-09-07T16:13:03.199Z,24.37
2022-09-07T16:15:45.246Z,24.32
2022-09-07T16:18:16.438Z,24.27
2022-09-07T16:20:44.828Z,24.22
2022-09-07T16:23:15.008Z,24.17
2022-09-07T16:25:43.848Z,24.12
2022-09-07T16:28:11.703Z,24.08
2022-09-07T16:30:40.995Z,24.04
2022-09-07T16:33:08.802Z,23.98
2022-09-07T16:35:36.343Z,23.93
2022-09-07T16:40:51.526Z,23.81
2022-09-07T16:43:19.096Z,23.75
2022-09-07T16:48:35.591Z,23.61
2022-09-07T16:51:04.513Z,23.53
2022-09-07T16:53:34.625Z,23.45
2022-09-07T16:56:06.438Z,23.36
2022-09-07T16:58:35.704Z,23.28
2022-09-07T17:01:04.482Z,23.20
2022-09-07T17:03:32.876Z,23.11
2022-09-07T17:06:01.465Z,23.02
2022-09-07T17:08:29.008Z,22.93
2022-09-07T17:11:01.424Z,22.85
2022-09-07T17:13:28.896Z,22.77
2022-09-07T17:16:02.545Z,22.68
2022-09-07T17:21:19.745Z,22.50
2022-09-07T17:23:54.212Z,22.43
2022-09-07T17:26:26.056Z,22.35
2022-09-07T17:28:55.213Z,22.28
2022-09-07T17:34:15.521Z,22.16
2022-09-07T17:36:42.773Z,22.12
2022-09-07T17:39:15.907Z,22.07
2022-09-07T17:41:43.859Z,22.02
2022-09-07T17:44:11.923Z,21.97
2022-09-07T17:46:39.575Z,21.89
2022-09-07T17:49:11.869Z,21.82
2022-09-07T17:51:39.298Z,21.76
2022-09-07T17:54:11.599Z,21.70
2022-09-07T17:56:43.734Z,21.62
2022-09-07T18:02:01.002Z,21.50
2022-09-07T18:04:29.685Z,21.42
2022-09-07T18:06:57.733Z,21.36
2022-09-07T18:09:25.183Z,21.30
2022-09-07T18:11:53.224Z,21.23
2022-09-07T18:14:21.022Z,21.18
2022-09-07T18:16:50.878Z,21.11
2022-09-07T18:19:19.653Z,21.04
2022-09-07T18:21:48.657Z,20.97
2022-09-07T18:24:23.038Z,20.89
2022-09-07T18:26:53.343Z,20.82
2022-09-07T18:29:33.915Z,20.76
2022-09-07T18:32:08.222Z,20.70
2022-09-07T18:34:40.571Z,20.64
2022-09-07T18:37:09.506Z,20.58
2022-09-07T18:39:40.474Z,20.53
2022-09-07T18:42:09.432Z,20.46
2022-09-07T18:47:29.787Z,20.33
2022-09-07T18:49:58.337Z,20.27
2022-09-07T18:55:14.674Z,20.16
2022-09-07T18:57:42.814Z,20.11
2022-09-07T19:00:12.223Z,20.07
2022-09-07T19:02:40.434Z,20.02
2022-09-07T19:07:58.031Z,19.91
2022-09-07T19:10:25.999Z,19.86
2022-09-07T19:12:54.293Z,19.81
2022-09-07T19:15:22.330Z,19.77
2022-09-07T19:17:50.620Z,19.73
2022-09-07T19:20:18.810Z,19.68
2022-09-07T19:22:47.078Z,19.64
2022-09-07T19:25:15.043Z,19.58
2022-09-07T19:27:42.854Z,19.53
2022-09-07T19:30:11.165Z,19.48
2022-09-07T19:32:38.978Z,19.43
2022-09-07T19:35:07.456Z,19.40
2022-09-07T19:37:38.476Z,19.35
2022-09-07T19:40:08.976Z,19.33
2022-09-07T19:42:37.586Z,19.29
2022-09-07T19:45:06.942Z,19.26
2022-09-07T19:47:35.716Z,19.22
2022-09-07T19:50:03.991Z,19.19
2022-09-07T19:52:32.555Z,19.16
2022-09-07T19:55:03.883Z,19.13
2022-09-07T19:57:31.352Z,19.11
2022-09-07T20:00:00.227Z,19.08
2022-09-07T20:02:28.224Z,19.06
2022-09-07T20:04:56.793Z,19.02
2022-09-07T20:07:24.860Z,19.00
2022-09-07T20:09:54.149Z,18.99
2022-09-07T20:12:21.552Z,18.98
2022-09-07T20:14:49.570Z,18.97
2022-09-07T20:17:17.616Z,18.96
2022-09-07T20:19:45.309Z,18.95
2022-09-07T20:22:13.373Z,18.92
2022-09-07T20:24:41.274Z,18.88
2022-09-07T20:27:08.900Z,18.84
2022-09-07T20:29:36.562Z,18.80
2022-09-07T20:32:03.911Z,18.76
2022-09-07T20:34:31.825Z,18.71
2022-09-07T20:37:00.473Z,18.66
2022-09-07T20:39:27.919Z,18.61
2022-09-07T20:41:55.293Z,18.55
2022-09-07T20:44:22.538Z,18.51
2022-09-07T20:46:49.727Z,18.46
2022-09-07T20:49:16.834Z,18.42
2022-09-07T20:51:43.884Z,18.39
2022-09-07T20:54:11.177Z,18.35
2022-09-07T20:56:38.594Z,18.32
2022-09-07T20:59:05.962Z,18.28
2022-09-07T21:01:35.510Z,18.26
2022-09-07T21:04:04.320Z,18.23
2022-09-07T21:06:32.115Z,18.19
2022-09-07T21:09:00.294Z,18.15
2022-09-07T21:11:32.415Z,18.12
2022-09-07T21:14:00.520Z,18.09
2022-09-07T21:16:28.756Z,18.07
2022-09-07T21:18:57.906Z,18.03
2022-09-07T21:21:26.929Z,18.03
2022-09-07T21:23:59.766Z,18.00
2022-09-07T21:26:28.687Z,17.98
2022-09-07T21:28:57.553Z,17.95
2022-09-07T21:31:25.623Z,17.93
2022-09-07T21:33:57.579Z,17.92
2022-09-07T21:36:25.457Z,17.90
2022-09-07T21:38:53.158Z,17.89
2022-09-07T21:41:21.804Z,17.86
2022-09-07T21:43:49.055Z,17.83
2022-09-07T21:46:21.958Z,17.81
2022-09-07T21:48:49.213Z,17.79
2022-09-07T21:51:17.156Z,17.77
2022-09-07T21:53:45.218Z,17.74
2022-09-07T21:56:14.528Z,17.70
2022-09-07T21:58:42.494Z,17.69
2022-09-07T22:01:19.825Z,17.69
2022-09-07T22:03:49.387Z,17.69
2022-09-07T22:06:16.427Z,17.68
2022-09-07T22:08:43.713Z,17.66
2022-09-07T22:11:16.494Z,17.64
2022-09-07T22:13:44.025Z,17.59
2022-09-07T22:16:12.066Z,17.57
2022-09-07T22:18:40.561Z,17.54
2022-09-07T22:21:09.692Z,17.52
2022-09-07T22:23:39.689Z,17.48
2022-09-07T22:26:07.499Z,17.43
2022-09-07T22:28:35.220Z,17.37
2022-09-07T22:31:41.485Z,17.30
2022-09-07T22:34:09.804Z,17.23
2022-09-07T22:36:40.211Z,17.17
2022-09-07T22:39:10.611Z,17.11
2022-09-07T22:41:39.125Z,17.06
2022-09-07T22:44:10.438Z,17.02
2022-09-07T22:46:39.695Z,16.99
2022-09-07T22:49:07.513Z,16.96
2022-09-07T22:51:34.665Z,16.93
2022-09-07T22:54:02.137Z,16.88
2022-09-07T22:56:31.832Z,16.80
2022-09-07T22:59:04.412Z,16.72
2022-09-07T23:01:32.394Z,16.67
2022-09-07T23:04:00.436Z,16.63
2022-09-07T23:06:46.509Z,16.61
2022-09-07T23:09:16.772Z,16.60
2022-09-07T23:11:45.508Z,16.59
2022-09-07T23:14:16.054Z,16.59
2022-09-07T23:16:44.144Z,16.59
2022-09-07T23:19:13.361Z,16.59
2022-09-07T23:21:40.986Z,16.59
2022-09-07T23:24:10.043Z,16.58
2022-09-07T23:26:37.153Z,16.59
2022-09-07T23:29:05.852Z,16.59
2022-09-07T23:31:34.766Z,16.59
2022-09-07T23:34:03.313Z,16.60
2022-09-07T23:36:31.393Z,16.62
2022-09-07T23:39:00.079Z,16.63
2022-09-07T23:41:28.019Z,16.63
2022-09-07T23:43:56.105Z,16.63
2022-09-07T23:46:23.578Z,16.64
2022-09-07T23:48:51.021Z,16.65
2022-09-07T23:51:23.553Z,16.67
2022-09-07T23:53:52.175Z,16.68
2022-09-07T23:56:19.751Z,16.70
2022-09-07T23:58:46.778Z,16.72
